createdAt,value
2023-01-29T00:00:15.454Z,-.11
2023-01-29T00:00:46.130Z,0
2023-01-29T00:01:18.115Z,0
2023-01-29T00:01:50.065Z,0
2023-01-29T00:02:22.032Z,0
2023-01-29T00:02:54.040Z,0
2023-01-29T00:03:25.959Z,0
2023-01-29T00:03:58.079Z,-.11
2023-01-29T00:04:29.944Z,-.11
2023-01-29T00:05:16.674Z,-.11
2023-01-29T00:05:33.869Z,-.11
2023-01-29T00:06:05.764Z,-.11
2023-01-29T00:06:37.962Z,-.11
2023-01-29T00:07:09.877Z,-.11
2023-01-29T00:07:41.690Z,-.11
2023-01-29T00:07:58.000Z,-.11
2023-01-29T00:08:29.688Z,-.11
2023-01-29T00:08:45.763Z,-.11
2023-01-29T00:09:17.833Z,-.11
2023-01-29T00:09:49.662Z,-.11
2023-01-29T00:10:21.926Z,-.11
2023-01-29T00:10:53.665Z,-.11
2023-01-29T00:11:25.676Z,-.11
2023-01-29T00:11:57.735Z,-.11
2023-01-29T00:12:13.789Z,0
2023-01-29T00:12:45.465Z,0
2023-01-29T00:13:29.607Z,0
2023-01-29T00:14:01.848Z,0
2023-01-29T00:14:33.566Z,0
2023-01-29T00:15:07.042Z,0
2023-01-29T00:15:37.745Z,0
2023-01-29T00:16:09.633Z,-.11
2023-01-29T00:16:41.322Z,-.11
2023-01-29T00:16:57.663Z,-.11
2023-01-29T00:17:41.299Z,-.11
2023-01-29T00:18:13.603Z,0
2023-01-29T00:18:45.326Z,-.11
2023-01-29T00:19:17.295Z,0
2023-01-29T00:19:49.319Z,-.11
2023-01-29T00:20:21.487Z,-.11
2023-01-29T00:20:53.375Z,-.11
2023-01-29T00:21:25.105Z,-.11
2023-01-29T00:21:57.217Z,-.11
2023-01-29T00:22:29.233Z,-.11
2023-01-29T00:23:01.416Z,-.11
2023-01-29T00:23:33.015Z,-.11
2023-01-29T00:24:05.381Z,-.11
2023-01-29T00:24:37.096Z,-.11
2023-01-29T00:25:09.453Z,-.11
2023-01-29T00:25:41.058Z,-.22
2023-01-29T00:26:13.202Z,-.22
2023-01-29T00:26:44.950Z,-.22
2023-01-29T00:27:17.118Z,-.22
2023-01-29T00:27:48.822Z,-.11
2023-01-29T00:28:05.345Z,-.11
2023-01-29T00:28:36.965Z,-.11
2023-01-29T00:29:20.777Z,-.11
2023-01-29T00:29:53.122Z,0
2023-01-29T00:30:25.207Z,0
2023-01-29T00:30:56.835Z,0
2023-01-29T00:31:29.074Z,0
2023-01-29T00:32:01.002Z,0
2023-01-29T00:32:32.726Z,0
2023-01-29T00:33:05.117Z,0
2023-01-29T00:33:36.758Z,0
2023-01-29T00:34:08.690Z,0
2023-01-29T00:34:40.682Z,0
2023-01-29T00:34:56.878Z,0
2023-01-29T00:35:40.878Z,0
2023-01-29T00:36:12.689Z,0
2023-01-29T00:36:44.533Z,0
2023-01-29T00:37:16.409Z,0
2023-01-29T00:37:48.508Z,0
2023-01-29T00:38:20.451Z,0
2023-01-29T00:38:52.647Z,0
2023-01-29T00:39:31.301Z,0
2023-01-29T00:39:56.420Z,0
2023-01-29T00:40:28.965Z,0
2023-01-29T00:41:00.569Z,0
2023-01-29T00:41:32.348Z,0
2023-01-29T00:42:04.654Z,0
2023-01-29T00:42:36.254Z,0
2023-01-29T00:43:08.605Z,0
2023-01-29T00:43:40.254Z,-.11
2023-01-29T00:43:56.374Z,-.11
2023-01-29T00:44:28.293Z,-.11
2023-01-29T00:44:44.357Z,-.11
2023-01-29T00:45:18.211Z,-.11
2023-01-29T00:45:48.197Z,-.11
2023-01-29T00:46:20.139Z,-.11
2023-01-29T00:46:52.228Z,-.11
2023-01-29T00:47:24.178Z,-.11
2023-01-29T00:47:56.006Z,-.11
2023-01-29T00:48:12.228Z,-.11
2023-01-29T00:48:44.076Z,-.11
2023-01-29T00:49:28.324Z,-.11
2023-01-29T00:50:00.029Z,0
2023-01-29T00:50:32.200Z,0
2023-01-29T00:51:04.677Z,0
2023-01-29T00:51:35.851Z,0
2023-01-29T00:52:08.013Z,0
2023-01-29T00:52:39.787Z,.11
2023-01-29T00:52:55.993Z,.11
2023-01-29T00:53:39.906Z,0
2023-01-29T00:54:11.874Z,0
2023-01-29T00:54:43.994Z,0
2023-01-29T00:55:16.168Z,0
2023-01-29T00:55:47.767Z,0
2023-01-29T00:56:19.902Z,0
2023-01-29T00:56:51.933Z,0
2023-01-29T00:57:23.689Z,0
2023-01-29T00:57:55.662Z,0
2023-01-29T00:58:27.784Z,0
2023-01-29T00:58:59.786Z,0
2023-01-29T00:59:31.565Z,0
2023-01-29T01:00:05.965Z,0
2023-01-29T01:00:35.723Z,0
2023-01-29T01:01:07.792Z,0
2023-01-29T01:01:39.460Z,0
2023-01-29T01:01:55.720Z,0
2023-01-29T01:02:27.449Z,0
2023-01-29T01:02:43.615Z,0
2023-01-29T01:03:15.467Z,0
2023-01-29T01:03:47.505Z,0
2023-01-29T01:04:19.383Z,0
2023-01-29T01:04:51.303Z,0
2023-01-29T01:05:23.939Z,0
2023-01-29T01:05:55.302Z,0
2023-01-29T01:06:11.357Z,0
2023-01-29T01:06:43.331Z,0
2023-01-29T01:07:27.288Z,-.11
2023-01-29T01:07:59.441Z,-.11
2023-01-29T01:08:31.120Z,-.11
2023-01-29T01:09:03.551Z,-.11
2023-01-29T01:09:35.245Z,-.11
2023-01-29T01:10:07.680Z,-.11
2023-01-29T01:10:39.084Z,-.11
2023-01-29T01:10:55.470Z,-.11
2023-01-29T01:11:39.185Z,0
2023-01-29T01:12:11.202Z,0
2023-01-29T01:12:43.206Z,0
2023-01-29T01:13:15.160Z,0
2023-01-29T01:13:47.110Z,0
2023-01-29T01:14:19.085Z,0
2023-01-29T01:14:51.106Z,0
2023-01-29T01:15:23.403Z,0
2023-01-29T01:15:54.934Z,0
2023-01-29T01:16:27.041Z,-.11
2023-01-29T01:16:59.024Z,-.11
2023-01-29T01:17:30.768Z,-.11
2023-01-29T01:18:03.623Z,-.11
2023-01-29T01:18:34.849Z,0
2023-01-29T01:19:06.766Z,0
2023-01-29T01:19:38.678Z,0
2023-01-29T01:19:54.840Z,0
2023-01-29T01:20:27.014Z,0
2023-01-29T01:20:42.667Z,0
2023-01-29T01:21:14.811Z,0
2023-01-29T01:21:46.614Z,0
2023-01-29T01:22:18.728Z,0
2023-01-29T01:22:50.682Z,0
2023-01-29T01:23:22.669Z,0
2023-01-29T01:23:54.667Z,0
2023-01-29T01:24:10.747Z,0
2023-01-29T01:24:42.538Z,0
2023-01-29T01:25:26.835Z,0
2023-01-29T01:25:58.620Z,0
2023-01-29T01:26:30.418Z,0
2023-01-29T01:27:03.258Z,0
2023-01-29T01:27:34.413Z,0
2023-01-29T01:28:06.257Z,0
2023-01-29T01:28:38.419Z,0
2023-01-29T01:28:54.514Z,0
2023-01-29T01:29:38.573Z,0
2023-01-29T01:30:11.768Z,0
2023-01-29T01:30:42.261Z,0
2023-01-29T01:31:14.680Z,0
2023-01-29T01:31:46.396Z,0
2023-01-29T01:32:18.331Z,0
2023-01-29T01:32:50.105Z,0
2023-01-29T01:33:22.284Z,0
2023-01-29T01:33:54.339Z,0
2023-01-29T01:34:26.314Z,0
2023-01-29T01:34:59.167Z,0
2023-01-29T01:35:30.421Z,0
2023-01-29T01:36:02.606Z,0
2023-01-29T01:36:34.135Z,0
2023-01-29T01:37:06.027Z,0
2023-01-29T01:37:38.185Z,.11
2023-01-29T01:37:54.278Z,.11
2023-01-29T01:38:25.876Z,.11
2023-01-29T01:38:42.150Z,.11
2023-01-29T01:39:13.947Z,.11
2023-01-29T01:39:45.865Z,.11
2023-01-29T01:40:18.845Z,.11
2023-01-29T01:40:49.975Z,.11
2023-01-29T01:41:21.759Z,.11
2023-01-29T01:41:53.897Z,0
2023-01-29T01:42:09.824Z,0
2023-01-29T01:42:41.818Z,0
2023-01-29T01:43:25.780Z,0
2023-01-29T01:43:57.669Z,.11
2023-01-29T01:44:29.840Z,.11
2023-01-29T01:45:04.484Z,.11
2023-01-29T01:45:33.770Z,.11
2023-01-29T01:46:05.742Z,.11
2023-01-29T01:46:37.666Z,.11
2023-01-29T01:46:53.809Z,0
2023-01-29T01:47:37.736Z,0
2023-01-29T01:48:09.742Z,0
2023-01-29T01:48:41.448Z,0
2023-01-29T01:49:13.550Z,-.11
2023-01-29T01:49:45.607Z,-.11
2023-01-29T01:50:18.189Z,-.11
2023-01-29T01:50:49.363Z,-.11
2023-01-29T01:51:21.518Z,-.11
2023-01-29T01:51:53.617Z,-.11
2023-01-29T01:52:25.431Z,-.11
2023-01-29T01:52:57.483Z,-.11
2023-01-29T01:53:29.421Z,-.11
2023-01-29T01:54:01.542Z,-.11
2023-01-29T01:54:33.338Z,-.11
2023-01-29T01:55:05.706Z,-.11
2023-01-29T01:55:37.313Z,-.11
2023-01-29T01:55:53.838Z,-.11
2023-01-29T01:56:25.085Z,-.11
2023-01-29T01:56:41.405Z,-.11
2023-01-29T01:57:13.281Z,-.11
2023-01-29T01:57:45.123Z,-.11
2023-01-29T01:58:17.436Z,-.11
2023-01-29T01:58:49.196Z,-.11
2023-01-29T01:59:21.369Z,-.11
2023-01-29T01:59:53.129Z,-.11
2023-01-29T02:00:10.297Z,-.11
2023-01-29T02:00:41.203Z,-.11
2023-01-29T02:01:25.855Z,-.11
2023-01-29T02:01:56.913Z,-.11
2023-01-29T02:02:29.019Z,-.11
2023-01-29T02:03:00.856Z,-.11
2023-01-29T02:03:33.153Z,-.11
2023-01-29T02:04:04.828Z,-.11
2023-01-29T02:04:36.808Z,-.11
2023-01-29T02:04:53.314Z,-.11
2023-01-29T02:05:37.069Z,-.11
2023-01-29T02:06:08.963Z,-.11
2023-01-29T02:06:40.685Z,-.11
2023-01-29T02:07:12.615Z,-.11
2023-01-29T02:07:44.738Z,-.11
2023-01-29T02:08:16.960Z,-.11
2023-01-29T02:08:48.693Z,-.11
2023-01-29T02:09:20.656Z,-.11
2023-01-29T02:09:52.652Z,-.11
2023-01-29T02:10:24.924Z,-.11
2023-01-29T02:10:56.779Z,-.11
2023-01-29T02:11:28.734Z,-.11
2023-01-29T02:12:00.580Z,-.11
2023-01-29T02:12:32.784Z,0
2023-01-29T02:13:04.527Z,-.11
2023-01-29T02:13:36.401Z,-.11
2023-01-29T02:14:08.580Z,-.11
2023-01-29T02:14:40.412Z,-.11
2023-01-29T02:15:13.876Z,-.11
2023-01-29T02:15:44.405Z,-.11
2023-01-29T02:16:16.239Z,0
2023-01-29T02:16:48.510Z,0
2023-01-29T02:17:20.583Z,0
2023-01-29T02:17:52.300Z,0
2023-01-29T02:18:24.493Z,0
2023-01-29T02:18:56.321Z,0
2023-01-29T02:19:28.356Z,0
2023-01-29T02:20:00.555Z,0
2023-01-29T02:20:32.439Z,0
2023-01-29T02:21:04.429Z,0
2023-01-29T02:21:36.244Z,0
2023-01-29T02:22:08.118Z,0
2023-01-29T02:22:24.308Z,0
2023-01-29T02:22:56.168Z,-.11
2023-01-29T02:23:40.100Z,-.11
2023-01-29T02:24:12.313Z,-.11
2023-01-29T02:24:44.005Z,-.11
2023-01-29T02:25:16.466Z,-.22
2023-01-29T02:25:48.218Z,-.22
2023-01-29T02:26:20.093Z,-.22
2023-01-29T02:26:51.970Z,-.22
2023-01-29T02:27:08.087Z,-.22
2023-01-29T02:27:51.872Z,-.22
2023-01-29T02:28:24.075Z,-.22
2023-01-29T02:28:55.938Z,-.22
2023-01-29T02:29:27.822Z,-.22
2023-01-29T02:29:59.724Z,-.22
2023-01-29T02:30:32.408Z,-.22
2023-01-29T02:31:04.282Z,-.22
2023-01-29T02:31:35.873Z,-.22
2023-01-29T02:31:52.127Z,-.22
2023-01-29T02:32:23.703Z,-.22
2023-01-29T02:32:39.723Z,-.22
2023-01-29T02:33:11.720Z,-.22
2023-01-29T02:33:43.590Z,-.22
2023-01-29T02:34:15.746Z,-.22
2023-01-29T02:34:47.925Z,-.22
2023-01-29T02:35:19.963Z,-.22
2023-01-29T02:35:51.584Z,-.22
2023-01-29T02:36:07.758Z,-.22
2023-01-29T02:36:39.517Z,-.22
2023-01-29T02:37:23.664Z,-.22
2023-01-29T02:37:55.539Z,-.22
2023-01-29T02:38:27.549Z,-.22
2023-01-29T02:38:59.455Z,-.22
2023-01-29T02:39:31.418Z,-.22
2023-01-29T02:40:04.211Z,-.27
2023-01-29T02:40:35.268Z,-.27
2023-01-29T02:40:51.751Z,-.27
2023-01-29T02:41:35.373Z,-.22
2023-01-29T02:42:07.333Z,-.22
2023-01-29T02:42:39.258Z,-.22
2023-01-29T02:43:11.395Z,-.22
2023-01-29T02:43:43.282Z,-.22
2023-01-29T02:44:15.343Z,-.22
2023-01-29T02:44:47.110Z,-.22
2023-01-29T02:45:19.473Z,-.22
2023-01-29T02:45:51.269Z,-.22
2023-01-29T02:46:23.217Z,-.22
2023-01-29T02:46:54.996Z,-.22
2023-01-29T02:47:27.206Z,-.22
2023-01-29T02:47:59.068Z,-.22
2023-01-29T02:48:31.041Z,-.22
2023-01-29T02:49:03.798Z,-.22
2023-01-29T02:49:34.863Z,-.22
2023-01-29T02:50:07.271Z,-.22
2023-01-29T02:50:39.060Z,-.22
2023-01-29T02:51:10.867Z,-.22
2023-01-29T02:51:42.869Z,-.27
2023-01-29T02:52:14.946Z,-.27
2023-01-29T02:52:46.941Z,-.27
2023-01-29T02:53:19.032Z,-.27
2023-01-29T02:53:50.742Z,-.27
2023-01-29T02:54:06.910Z,-.27
2023-01-29T02:54:38.774Z,-.22
2023-01-29T02:55:23.155Z,-.22
2023-01-29T02:55:54.833Z,-.22
2023-01-29T02:56:26.690Z,-.22
2023-01-29T02:56:58.696Z,-.22
2023-01-29T02:57:30.847Z,-.22
2023-01-29T02:58:03.526Z,-.22
2023-01-29T02:58:34.504Z,-.22
2023-01-29T02:58:50.815Z,-.22
2023-01-29T02:59:34.582Z,-.22
2023-01-29T03:00:07.730Z,-.27
2023-01-29T03:00:38.641Z,-.27
2023-01-29T03:01:10.627Z,-.27
2023-01-29T03:01:42.626Z,-.27
2023-01-29T03:02:14.623Z,-.27
2023-01-29T03:02:46.269Z,-.38
2023-01-29T03:03:18.550Z,-.38
2023-01-29T03:03:50.405Z,-.38
2023-01-29T03:04:22.483Z,-.38
2023-01-29T03:04:54.427Z,-.38
2023-01-29T03:05:26.613Z,-.27
2023-01-29T03:05:58.489Z,-.27
2023-01-29T03:06:30.415Z,-.27
2023-01-29T03:07:02.371Z,-.27
2023-01-29T03:07:34.323Z,-.27
2023-01-29T03:08:06.388Z,-.27
2023-01-29T03:08:38.572Z,-.27
2023-01-29T03:09:10.196Z,-.27
2023-01-29T03:09:42.308Z,-.27
2023-01-29T03:10:14.813Z,-.27
2023-01-29T03:10:46.142Z,-.27
2023-01-29T03:11:18.017Z,-.27
2023-01-29T03:11:50.020Z,-.27
2023-01-29T03:12:06.084Z,-.27
2023-01-29T03:12:37.907Z,-.27
2023-01-29T03:13:22.235Z,-.27
2023-01-29T03:13:54.000Z,-.27
2023-01-29T03:14:25.873Z,-.27
2023-01-29T03:14:58.246Z,-.27
2023-01-29T03:15:30.473Z,-.27
2023-01-29T03:16:02.145Z,-.27
2023-01-29T03:16:33.937Z,-.27
2023-01-29T03:16:50.162Z,-.27
2023-01-29T03:17:34.047Z,-.27
2023-01-29T03:18:05.803Z,-.27
2023-01-29T03:18:37.698Z,-.27
2023-01-29T03:19:09.784Z,-.27
2023-01-29T03:19:41.693Z,-.27
2023-01-29T03:20:14.220Z,-.38
2023-01-29T03:20:45.662Z,-.38
2023-01-29T03:21:17.720Z,-.38
2023-01-29T03:21:49.535Z,-.38
2023-01-29T03:22:21.694Z,-.27
2023-01-29T03:22:53.618Z,-.27
2023-01-29T03:23:25.578Z,-.27
2023-01-29T03:23:57.571Z,-.27
2023-01-29T03:24:29.651Z,-.27
2023-01-29T03:25:01.762Z,-.27
2023-01-29T03:25:33.427Z,-.27
2023-01-29T03:25:49.785Z,-.27
2023-01-29T03:26:21.595Z,-.27
2023-01-29T03:26:37.511Z,-.38
2023-01-29T03:27:09.567Z,-.38
2023-01-29T03:27:41.381Z,-.38
2023-01-29T03:28:13.585Z,-.38
2023-01-29T03:28:45.471Z,-.38
2023-01-29T03:29:17.285Z,-.38
2023-01-29T03:29:49.398Z,-.38
2023-01-29T03:30:06.674Z,-.38
2023-01-29T03:30:37.361Z,-.38
2023-01-29T03:31:22.523Z,-.27
2023-01-29T03:31:54.083Z,-.27
2023-01-29T03:32:25.862Z,-.27
2023-01-29T03:32:58.219Z,-.27
2023-01-29T03:33:29.325Z,-.27
2023-01-29T03:34:01.111Z,-.27
2023-01-29T03:34:33.073Z,-.27
2023-01-29T03:35:05.413Z,-.27
2023-01-29T03:35:37.236Z,-.27
2023-01-29T03:36:09.076Z,-.27
2023-01-29T03:36:40.992Z,-.27
2023-01-29T03:37:13.029Z,-.27
2023-01-29T03:37:45.103Z,-.38
2023-01-29T03:38:16.913Z,-.38
2023-01-29T03:38:49.100Z,-.38
2023-01-29T03:39:05.058Z,-.38
2023-01-29T03:39:48.947Z,-.38
2023-01-29T03:40:21.225Z,-.38
2023-01-29T03:40:52.784Z,-.38
2023-01-29T03:41:24.898Z,-.38
2023-01-29T03:41:57.048Z,-.38
2023-01-29T03:42:28.906Z,-.38
2023-01-29T03:43:00.949Z,-.38
2023-01-29T03:43:32.790Z,-.38
2023-01-29T03:44:04.915Z,-.38
2023-01-29T03:44:36.792Z,-.38
2023-01-29T03:45:09.934Z,-.38
2023-01-29T03:45:40.620Z,-.38
2023-01-29T03:46:13.026Z,-.38
2023-01-29T03:46:44.709Z,-.38
2023-01-29T03:47:16.485Z,-.38
2023-01-29T03:47:48.641Z,-.38
2023-01-29T03:48:20.632Z,-.38
2023-01-29T03:48:52.632Z,-.38
2023-01-29T03:49:24.479Z,-.38
2023-01-29T03:49:56.451Z,-.38
2023-01-29T03:50:28.798Z,-.38
2023-01-29T03:51:00.626Z,-.38
2023-01-29T03:51:32.194Z,-.38
2023-01-29T03:52:04.811Z,-.27
2023-01-29T03:52:36.368Z,-.27
2023-01-29T03:53:08.392Z,-.27
2023-01-29T03:53:40.368Z,-.27
2023-01-29T03:54:12.485Z,-.27
2023-01-29T03:54:44.307Z,-.27
2023-01-29T03:55:16.550Z,-.27
2023-01-29T03:55:48.172Z,-.27
2023-01-29T03:56:04.772Z,-.27
2023-01-29T03:56:48.214Z,-.27
2023-01-29T03:57:04.719Z,-.27
2023-01-29T03:57:48.322Z,-.22
2023-01-29T03:58:20.217Z,-.27
2023-01-29T03:58:52.148Z,-.27
2023-01-29T03:59:24.187Z,-.27
2023-01-29T03:59:56.035Z,-.27
2023-01-29T04:00:28.667Z,-.27
2023-01-29T04:01:00.038Z,-.22
2023-01-29T04:01:32.012Z,-.22
2023-01-29T04:02:04.644Z,-.22
2023-01-29T04:02:36.091Z,-.22
2023-01-29T04:03:08.112Z,-.22
2023-01-29T04:03:39.921Z,-.22
2023-01-29T04:04:12.034Z,-.22
2023-01-29T04:04:44.005Z,-.22
2023-01-29T04:05:16.663Z,-.27
2023-01-29T04:05:47.906Z,-.27
2023-01-29T04:06:04.330Z,-.27
2023-01-29T04:06:35.738Z,-.27
2023-01-29T04:07:19.914Z,-.27
2023-01-29T04:07:51.896Z,-.27
2023-01-29T04:08:07.912Z,-.27
2023-01-29T04:08:39.759Z,-.22
2023-01-29T04:09:23.808Z,-.22
2023-01-29T04:09:55.806Z,-.22
2023-01-29T04:10:27.824Z,-.22
2023-01-29T04:10:59.745Z,-.22
2023-01-29T04:11:31.734Z,-.22
2023-01-29T04:12:04.410Z,-.22
2023-01-29T04:12:35.531Z,-.22
2023-01-29T04:13:07.632Z,-.22
2023-01-29T04:13:39.649Z,-.22
2023-01-29T04:14:11.542Z,-.22
2023-01-29T04:14:43.723Z,-.22
2023-01-29T04:15:16.669Z,-.22
2023-01-29T04:15:47.465Z,-.22
2023-01-29T04:16:19.720Z,-.22
2023-01-29T04:16:51.312Z,-.22
2023-01-29T04:17:23.469Z,-.22
2023-01-29T04:17:55.452Z,-.27
2023-01-29T04:18:27.458Z,-.27
2023-01-29T04:18:59.383Z,-.27
2023-01-29T04:19:31.245Z,-.27
2023-01-29T04:20:04.408Z,-.27
2023-01-29T04:20:35.217Z,-.27
2023-01-29T04:21:07.218Z,-.27
2023-01-29T04:21:39.370Z,-.27
2023-01-29T04:22:11.205Z,-.27
2023-01-29T04:22:43.443Z,-.22
2023-01-29T04:23:15.057Z,-.22
2023-01-29T04:23:46.999Z,-.22
2023-01-29T04:24:04.112Z,-.22
2023-01-29T04:24:35.015Z,-.22
2023-01-29T04:25:19.465Z,-.22
2023-01-29T04:25:50.958Z,-.22
2023-01-29T04:26:22.921Z,-.22
2023-01-29T04:26:55.162Z,-.22
2023-01-29T04:27:26.979Z,-.22
2023-01-29T04:27:58.944Z,-.22
2023-01-29T04:28:15.166Z,-.22
2023-01-29T04:28:46.864Z,-.22
2023-01-29T04:29:03.776Z,-.22
2023-01-29T04:29:34.848Z,-.22
2023-01-29T04:30:07.425Z,-.22
2023-01-29T04:30:38.809Z,-.22
2023-01-29T04:31:11.116Z,-.22
2023-01-29T04:31:42.986Z,-.22
2023-01-29T04:32:14.655Z,-.22
2023-01-29T04:32:46.638Z,-.22
2023-01-29T04:33:03.379Z,-.27
2023-01-29T04:33:46.833Z,-.27
2023-01-29T04:34:18.896Z,-.27
2023-01-29T04:34:50.530Z,-.27
2023-01-29T04:35:22.934Z,-.22
2023-01-29T04:35:54.731Z,-.22
2023-01-29T04:36:26.584Z,-.22
2023-01-29T04:36:58.678Z,-.22
2023-01-29T04:37:30.601Z,-.22
2023-01-29T04:37:46.675Z,-.22
2023-01-29T04:38:18.690Z,-.22
2023-01-29T04:38:34.520Z,-.27
2023-01-29T04:39:06.411Z,-.27
2023-01-29T04:39:38.426Z,-.27
2023-01-29T04:40:10.946Z,-.27
2023-01-29T04:40:42.504Z,-.27
2023-01-29T04:41:14.342Z,-.27
2023-01-29T04:41:46.301Z,-.27
2023-01-29T04:42:02.819Z,-.27
2023-01-29T04:42:34.146Z,-.27
2023-01-29T04:43:18.228Z,-.27
2023-01-29T04:43:34.324Z,-.27
2023-01-29T04:44:18.257Z,-.27
2023-01-29T04:44:34.358Z,-.27
2023-01-29T04:45:18.865Z,-.27
2023-01-29T04:45:50.237Z,-.27
2023-01-29T04:46:22.203Z,-.22
2023-01-29T04:46:54.057Z,-.22
2023-01-29T04:47:26.324Z,-.22
2023-01-29T04:47:58.355Z,-.22
2023-01-29T04:48:30.047Z,-.22
2023-01-29T04:49:02.202Z,-.22
2023-01-29T04:49:34.125Z,-.22
2023-01-29T04:50:06.274Z,-.22
2023-01-29T04:50:37.985Z,-.22
2023-01-29T04:51:10.024Z,-.22
2023-01-29T04:51:41.875Z,-.22
2023-01-29T04:52:14.075Z,-.22
2023-01-29T04:52:46.007Z,-.22
2023-01-29T04:53:02.333Z,-.22
2023-01-29T04:53:45.895Z,-.22
2023-01-29T04:54:02.378Z,-.22
2023-01-29T04:54:45.922Z,-.22
2023-01-29T04:55:18.202Z,-.22
2023-01-29T04:55:49.683Z,-.27
2023-01-29T04:56:21.733Z,-.27
2023-01-29T04:56:53.709Z,-.27
2023-01-29T04:57:25.852Z,-.27
2023-01-29T04:57:57.732Z,-.27
2023-01-29T04:58:29.672Z,-.27
2023-01-29T04:59:01.643Z,-.27
2023-01-29T04:59:33.723Z,-.27
2023-01-29T05:00:06.792Z,-.27
2023-01-29T05:00:37.541Z,-.27
2023-01-29T05:01:09.680Z,-.27
2023-01-29T05:01:41.622Z,-.27
2023-01-29T05:02:13.558Z,-.27
2023-01-29T05:02:45.597Z,-.27
2023-01-29T05:03:01.884Z,-.27
2023-01-29T05:03:33.322Z,-.27
2023-01-29T05:04:17.420Z,-.38
2023-01-29T05:04:49.386Z,-.38
2023-01-29T05:05:21.597Z,-.38
2023-01-29T05:05:53.394Z,-.38
2023-01-29T05:06:25.417Z,-.38
2023-01-29T05:06:57.171Z,-.50
2023-01-29T05:07:29.410Z,-.50
2023-01-29T05:07:45.400Z,-.50
2023-01-29T05:08:29.528Z,-.38
2023-01-29T05:09:01.496Z,-.38
2023-01-29T05:09:33.008Z,-.38
2023-01-29T05:10:05.690Z,-.38
2023-01-29T05:10:37.200Z,-.38
2023-01-29T05:11:09.194Z,-.27
2023-01-29T05:11:41.104Z,-.27
2023-01-29T05:12:13.167Z,-.27
2023-01-29T05:12:45.133Z,-.27
2023-01-29T05:13:17.211Z,-.27
2023-01-29T05:13:48.986Z,-.27
2023-01-29T05:14:20.967Z,-.27
2023-01-29T05:14:53.057Z,-.27
2023-01-29T05:15:25.484Z,-.27
2023-01-29T05:15:56.850Z,-.27
2023-01-29T05:16:29.117Z,-.27
2023-01-29T05:17:01.094Z,-.27
2023-01-29T05:17:32.925Z,-.27
2023-01-29T05:18:05.026Z,-.27
2023-01-29T05:18:36.853Z,-.27
2023-01-29T05:19:08.875Z,-.27
2023-01-29T05:19:40.915Z,-.27
2023-01-29T05:20:12.942Z,-.27
2023-01-29T05:20:44.785Z,-.27
2023-01-29T05:21:00.972Z,-.38
2023-01-29T05:21:32.680Z,-.38
2023-01-29T05:22:16.776Z,-.38
2023-01-29T05:22:48.632Z,-.38
2023-01-29T05:23:20.594Z,-.38
2023-01-29T05:23:52.817Z,-.38
2023-01-29T05:24:24.721Z,-.38
2023-01-29T05:24:56.437Z,-.38
2023-01-29T05:25:29.067Z,-.38
2023-01-29T05:26:00.565Z,-.38
2023-01-29T05:26:32.597Z,-.38
2023-01-29T05:27:04.830Z,-.38
2023-01-29T05:27:36.276Z,-.38
2023-01-29T05:28:08.685Z,-.38
2023-01-29T05:28:40.516Z,-.38
2023-01-29T05:29:12.354Z,-.38
2023-01-29T05:29:44.306Z,-.38
2023-01-29T05:30:01.369Z,-.50
2023-01-29T05:30:44.508Z,-.50
2023-01-29T05:31:16.431Z,-.50
2023-01-29T05:31:48.126Z,-.50
2023-01-29T05:32:20.319Z,-.50
2023-01-29T05:32:52.340Z,-.38
2023-01-29T05:33:24.343Z,-.38
2023-01-29T05:33:56.187Z,-.38
2023-01-29T05:34:28.236Z,-.38
2023-01-29T05:35:00.210Z,-.38
2023-01-29T05:35:32.639Z,-.38
2023-01-29T05:36:06.094Z,-.38
2023-01-29T05:36:35.989Z,-.38
2023-01-29T05:37:08.104Z,-.38
2023-01-29T05:37:40.188Z,-.38
2023-01-29T05:38:11.970Z,-.38
2023-01-29T05:38:44.049Z,-.38
2023-01-29T05:39:16.005Z,-.38
2023-01-29T05:39:48.075Z,-.38
2023-01-29T05:40:20.203Z,-.38
2023-01-29T05:40:51.970Z,-.38
2023-01-29T05:41:23.942Z,-.38
2023-01-29T05:41:56.002Z,-.38
2023-01-29T05:42:27.725Z,-.38
2023-01-29T05:42:44.049Z,-.38
2023-01-29T05:43:27.746Z,-.38
2023-01-29T05:44:00.010Z,-.38
2023-01-29T05:44:31.877Z,-.38
2023-01-29T05:45:06.170Z,-.38
2023-01-29T05:45:35.694Z,-.38
2023-01-29T05:46:07.708Z,-.38
2023-01-29T05:46:39.754Z,-.38
2023-01-29T05:47:11.605Z,-.38
2023-01-29T05:47:43.709Z,-.38
2023-01-29T05:47:59.870Z,-.38
2023-01-29T05:48:43.689Z,-.38
2023-01-29T05:49:15.619Z,-.38
2023-01-29T05:49:47.384Z,-.38
2023-01-29T05:50:19.893Z,-.38
2023-01-29T05:50:51.397Z,-.38
2023-01-29T05:51:23.700Z,-.38
2023-01-29T05:51:55.380Z,-.38
2023-01-29T05:52:27.326Z,-.38
2023-01-29T05:52:59.607Z,-.38
2023-01-29T05:53:31.533Z,-.38
2023-01-29T05:54:04.243Z,-.38
2023-01-29T05:54:35.339Z,-.38
2023-01-29T05:55:07.642Z,-.50
2023-01-29T05:55:39.347Z,-.50
2023-01-29T05:56:11.150Z,-.50
2023-01-29T05:56:43.201Z,-.50
2023-01-29T05:57:15.322Z,-.50
2023-01-29T05:57:47.260Z,-.50
2023-01-29T05:58:19.248Z,-.50
2023-01-29T05:58:51.218Z,-.50
2023-01-29T05:59:23.304Z,-.50
2023-01-29T05:59:55.231Z,-.50
2023-01-29T06:00:27.281Z,-.50
2023-01-29T06:00:43.159Z,-.50
2023-01-29T06:01:27.044Z,-.50
2023-01-29T06:01:59.214Z,-.50
2023-01-29T06:02:31.069Z,-.50
2023-01-29T06:03:03.629Z,-.50
2023-01-29T06:03:19.125Z,-.50
2023-01-29T06:03:50.782Z,-.50
2023-01-29T06:04:34.964Z,-.61
2023-01-29T06:05:06.926Z,-.61
2023-01-29T06:05:38.861Z,-.61
2023-01-29T06:06:10.823Z,-.61
2023-01-29T06:06:42.767Z,-.61
2023-01-29T06:07:14.966Z,-.61
2023-01-29T06:07:46.689Z,-.61
2023-01-29T06:08:18.728Z,-.61
2023-01-29T06:08:50.790Z,-.61
2023-01-29T06:09:22.829Z,-.61
2023-01-29T06:09:54.493Z,-.61
2023-01-29T06:10:26.824Z,-.61
2023-01-29T06:10:58.747Z,-.61
2023-01-29T06:11:30.705Z,-.61
2023-01-29T06:12:03.112Z,-.72
2023-01-29T06:12:34.576Z,-.72
2023-01-29T06:13:06.476Z,-.72
2023-01-29T06:13:38.655Z,-.72
2023-01-29T06:14:10.409Z,-.72
2023-01-29T06:14:42.483Z,-.61
2023-01-29T06:14:58.938Z,-.61
2023-01-29T06:15:30.928Z,-.61
2023-01-29T06:16:14.760Z,-.61
2023-01-29T06:16:46.262Z,-.61
2023-01-29T06:17:18.330Z,-.61
2023-01-29T06:17:50.348Z,-.61
2023-01-29T06:18:22.516Z,-.61
2023-01-29T06:18:54.337Z,-.72
2023-01-29T06:19:26.240Z,-.72
2023-01-29T06:19:58.209Z,-.72
2023-01-29T06:20:30.552Z,-.72
2023-01-29T06:21:02.712Z,-.72
2023-01-29T06:21:34.086Z,-.72
2023-01-29T06:22:06.222Z,-.72
2023-01-29T06:22:38.403Z,-.72
2023-01-29T06:23:10.022Z,-.72
2023-01-29T06:23:42.256Z,-.72
2023-01-29T06:23:58.319Z,-.72
2023-01-29T06:24:42.145Z,-.72
2023-01-29T06:25:14.744Z,-.72
2023-01-29T06:25:45.838Z,-.72
2023-01-29T06:26:17.963Z,-.72
2023-01-29T06:26:50.144Z,-.72
2023-01-29T06:27:22.029Z,-.72
2023-01-29T06:27:54.039Z,-.72
2023-01-29T06:28:25.877Z,-.61
2023-01-29T06:28:42.178Z,-.61
2023-01-29T06:29:13.928Z,-.61
2023-01-29T06:29:29.960Z,-.61
2023-01-29T06:30:04.639Z,-.61
2023-01-29T06:30:33.872Z,-.61
2023-01-29T06:31:22.202Z,-.61
2023-01-29T06:31:39.258Z,-.61
2023-01-29T06:32:09.678Z,-.61
2023-01-29T06:32:41.812Z,-.61
2023-01-29T06:32:57.776Z,-.61
2023-01-29T06:33:29.705Z,-.61
2023-01-29T06:34:13.820Z,-.61
2023-01-29T06:34:47.896Z,-.61
2023-01-29T06:35:18.023Z,-.61
2023-01-29T06:35:49.905Z,-.61
2023-01-29T06:36:21.530Z,-.61
2023-01-29T06:36:53.486Z,-.61
2023-01-29T06:37:25.406Z,-.50
2023-01-29T06:37:41.750Z,-.50
2023-01-29T06:38:25.408Z,-.50
2023-01-29T06:38:57.479Z,-.50
2023-01-29T06:39:29.523Z,-.50
2023-01-29T06:40:01.985Z,-.50
2023-01-29T06:40:33.521Z,-.50
2023-01-29T06:41:05.513Z,-.50
2023-01-29T06:41:37.154Z,-.50
2023-01-29T06:42:09.261Z,-.50
2023-01-29T06:42:41.466Z,-.50
2023-01-29T06:43:13.312Z,-.50
2023-01-29T06:43:45.298Z,-.50
2023-01-29T06:44:17.174Z,-.50
2023-01-29T06:44:49.207Z,-.50
2023-01-29T06:45:21.719Z,-.50
2023-01-29T06:45:53.198Z,-.50
2023-01-29T06:46:25.064Z,-.50
2023-01-29T06:46:57.174Z,-.50
2023-01-29T06:47:29.290Z,-.50
2023-01-29T06:48:01.661Z,-.50
2023-01-29T06:48:33.307Z,-.50
2023-01-29T06:49:05.089Z,-.50
2023-01-29T06:49:36.948Z,-.50
2023-01-29T06:50:09.157Z,-.50
2023-01-29T06:50:41.161Z,-.50
2023-01-29T06:50:57.503Z,-.50
2023-01-29T06:51:28.958Z,-.61
2023-01-29T06:52:13.053Z,-.61
2023-01-29T06:52:44.901Z,-.61
2023-01-29T06:53:16.898Z,-.61
2023-01-29T06:53:48.886Z,-.61
2023-01-29T06:54:21.088Z,-.61
2023-01-29T06:54:52.676Z,-.61
2023-01-29T06:55:24.999Z,-.61
2023-01-29T06:55:41.058Z,-.61
2023-01-29T06:56:24.677Z,-.61
2023-01-29T06:56:56.781Z,-.61
2023-01-29T06:57:28.629Z,-.61
2023-01-29T06:58:00.674Z,-.61
2023-01-29T06:58:32.764Z,-.61
2023-01-29T06:59:05.147Z,-.61
2023-01-29T06:59:36.607Z,-.61
2023-01-29T07:00:09.648Z,-.61
2023-01-29T07:00:40.621Z,-.61
2023-01-29T07:01:22.429Z,-.61
2023-01-29T07:01:44.705Z,-.61
2023-01-29T07:02:16.366Z,-.61
2023-01-29T07:02:48.587Z,-.50
2023-01-29T07:03:20.423Z,-.50
2023-01-29T07:03:52.366Z,-.50
2023-01-29T07:04:24.506Z,-.50